Larimer, Pennsylvania
Current Conditions -  °F | °C
As of 1:53 AM on Thursday 27 Nov 2014 (Local Time) from KAGC Reporting Station
Haze Haze  
Wind Chill: 32°   Ceiling: 4200
Heat Index: 32°   Visibility: 2.5mi
Dew Point: 28°   Wind: 3mph
Humidity: 85%   Direction: 330°NNW
Pressure: 29.97"   Gusts: NA
Location:  40.35°N, 79.73°W
Report Text: KAGC 270653Z 33003KT 2 1/2SM BR OVC042 00/M02 A2997 RMK AO2 SLP165 T00001022
Loading
Personal Weather Stations






























Interactive Weather Map New forecast layout! Learn more

10-Day Weather Forecast

Advertisements
Track Severe Weather on mobile